createdAt,value
2019-01-11T00:01:58.381Z,26.00
2019-01-11T00:04:28.950Z,25.20
2019-01-11T00:06:59.478Z,26.53
2019-01-11T00:09:30.006Z,22.53
2019-01-11T00:12:00.561Z,26.23
2019-01-11T00:14:31.154Z,26.60
2019-01-11T00:17:01.772Z,29.90
2019-01-11T00:19:32.287Z,23.13
2019-01-11T00:22:02.815Z,28.03
2019-01-11T00:24:33.306Z,30.20
2019-01-11T00:27:03.881Z,28.10
2019-01-11T00:29:34.402Z,32.37
2019-01-11T00:32:05.156Z,26.87
2019-01-11T00:34:35.696Z,23.20
2019-01-11T00:37:06.359Z,25.53
2019-01-11T00:39:36.880Z,27.40
2019-01-11T00:42:07.391Z,27.83
2019-01-11T00:44:37.884Z,29.10
2019-01-11T00:47:08.430Z,29.23
2019-01-11T00:49:38.917Z,33.90
2019-01-11T00:52:09.492Z,31.47
2019-01-11T00:54:40.016Z,37.67
2019-01-11T00:57:10.498Z,36.67
2019-01-11T00:59:41.020Z,32.50
2019-01-11T01:02:11.653Z,35.10
2019-01-11T01:04:42.182Z,40.70
2019-01-11T01:07:13.113Z,46.70
2019-01-11T01:09:43.699Z,40.43
2019-01-11T01:12:14.363Z,41.70
2019-01-11T01:14:44.951Z,43.00
2019-01-11T01:17:15.440Z,40.60
2019-01-11T01:19:45.966Z,39.50
2019-01-11T01:22:16.526Z,41.67
2019-01-11T01:24:47.054Z,39.77
2019-01-11T01:27:17.620Z,35.50
2019-01-11T01:29:48.153Z,49.77
2019-01-11T01:32:18.813Z,42.50
2019-01-11T01:34:49.341Z,40.53
2019-01-11T01:37:19.915Z,43.13
2019-01-11T01:39:50.443Z,47.70
2019-01-11T01:42:20.925Z,35.50
2019-01-11T01:44:51.441Z,41.47
2019-01-11T01:47:21.931Z,42.00
2019-01-11T01:49:52.451Z,47.90
2019-01-11T01:52:23.031Z,48.03
2019-01-11T01:54:53.550Z,40.67
2019-01-11T01:57:24.039Z,39.63
2019-01-11T01:59:54.576Z,40.57
2019-01-11T02:02:25.067Z,31.97
2019-01-11T02:04:55.582Z,34.37
2019-01-11T02:07:26.187Z,39.17
2019-01-11T02:09:56.695Z,36.07
2019-01-11T02:12:27.297Z,33.43
2019-01-11T02:14:57.782Z,38.70
2019-01-11T02:17:28.301Z,43.17
2019-01-11T02:19:58.796Z,33.77
2019-01-11T02:22:29.464Z,35.77
2019-01-11T02:25:00.000Z,29.37
2019-01-11T02:27:30.524Z,32.70
2019-01-11T02:30:01.077Z,31.50
2019-01-11T02:32:31.582Z,36.60
2019-01-11T02:35:02.104Z,33.70
2019-01-11T02:37:32.629Z,33.53
2019-01-11T02:40:03.617Z,30.07
2019-01-11T02:42:34.122Z,31.10
2019-01-11T02:45:06.776Z,33.70
2019-01-11T02:47:37.293Z,30.10
2019-01-11T02:50:10.691Z,29.83
2019-01-11T02:52:41.552Z,24.20
2019-01-11T02:55:12.190Z,26.80
2019-01-11T02:57:42.710Z,29.13
2019-01-11T03:00:17.445Z,32.50
2019-01-11T03:02:48.180Z,25.00
2019-01-11T03:05:19.438Z,24.10
2019-01-11T03:07:50.366Z,26.80
2019-01-11T03:10:22.297Z,25.40
2019-01-11T03:12:53.161Z,29.53
2019-01-11T03:15:23.684Z,31.27
2019-01-11T03:17:54.201Z,28.20
2019-01-11T03:20:24.695Z,29.30
2019-01-11T03:22:55.224Z,25.63
2019-01-11T03:25:25.708Z,29.03
2019-01-11T03:27:56.368Z,30.63
2019-01-11T03:30:26.863Z,30.80
2019-01-11T03:32:57.560Z,27.00
2019-01-11T03:35:28.152Z,29.13
2019-01-11T03:37:58.668Z,29.10
2019-01-11T03:40:29.165Z,23.27
2019-01-11T03:42:59.674Z,33.90
2019-01-11T03:45:30.217Z,26.83
2019-01-11T03:48:00.711Z,23.97
2019-01-11T03:50:31.504Z,27.47
2019-01-11T03:53:02.015Z,23.00
2019-01-11T03:55:32.524Z,24.50
2019-01-11T03:58:03.010Z,24.40
2019-01-11T04:00:33.532Z,35.13
2019-01-11T04:03:04.209Z,27.60
2019-01-11T04:05:34.710Z,30.90
2019-01-11T04:08:05.298Z,29.03
2019-01-11T04:10:35.818Z,28.00
2019-01-11T04:13:06.306Z,27.47
2019-01-11T04:15:36.857Z,31.90
2019-01-11T04:18:11.462Z,27.67
2019-01-11T04:20:41.986Z,27.00
2019-01-11T04:23:12.553Z,24.07
2019-01-11T04:25:43.161Z,32.37
2019-01-11T04:28:13.790Z,28.93
2019-01-11T04:30:44.353Z,32.57
2019-01-11T04:33:14.872Z,29.07
2019-01-11T04:35:45.430Z,33.03
2019-01-11T04:38:15.988Z,28.37
2019-01-11T04:40:46.490Z,26.30
2019-01-11T04:43:17.009Z,29.97
2019-01-11T04:45:48.610Z,27.03
2019-01-11T04:48:19.147Z,35.60
2019-01-11T04:50:51.071Z,26.73
2019-01-11T04:53:21.594Z,32.73
2019-01-11T04:55:52.226Z,29.60
2019-01-11T04:58:22.749Z,33.63
2019-01-11T05:00:53.279Z,35.63
2019-01-11T05:03:23.844Z,28.10
2019-01-11T05:05:54.371Z,25.30
2019-01-11T05:08:24.864Z,27.30
2019-01-11T05:10:55.385Z,28.97
2019-01-11T05:13:27.525Z,29.33
2019-01-11T05:15:58.053Z,27.50
2019-01-11T05:18:28.539Z,31.53
2019-01-11T05:20:59.061Z,31.67
2019-01-11T05:23:29.613Z,32.13
2019-01-11T05:26:00.290Z,29.63
2019-01-11T05:28:30.777Z,23.37
2019-01-11T05:31:01.432Z,27.40
2019-01-11T05:33:32.097Z,30.33
2019-01-11T05:36:02.625Z,29.10
2019-01-11T05:38:33.155Z,31.50
2019-01-11T05:41:03.671Z,27.60
2019-01-11T05:43:34.210Z,34.73
2019-01-11T05:46:04.845Z,28.40
2019-01-11T05:48:35.531Z,31.77
2019-01-11T05:51:06.097Z,29.07
2019-01-11T05:53:36.641Z,30.57
2019-01-11T05:56:08.271Z,27.30
2019-01-11T05:58:40.429Z,31.70
2019-01-11T06:01:11.086Z,32.73
2019-01-11T06:03:41.856Z,28.90
2019-01-11T06:06:12.590Z,27.60
2019-01-11T06:08:43.076Z,30.53
2019-01-11T06:11:13.679Z,30.07
2019-01-11T06:13:44.278Z,33.40
2019-01-11T06:16:14.831Z,30.10
2019-01-11T06:18:45.360Z,31.27
2019-01-11T06:21:15.849Z,31.80
2019-01-11T06:23:46.361Z,36.50
2019-01-11T06:26:16.876Z,26.70
2019-01-11T06:28:47.401Z,28.17
2019-01-11T06:31:17.878Z,28.97
2019-01-11T06:33:48.576Z,27.43
2019-01-11T06:36:19.066Z,32.40
2019-01-11T06:38:49.606Z,40.20
2019-01-11T06:41:20.271Z,40.33
2019-01-11T06:43:51.484Z,42.23
2019-01-11T06:46:23.553Z,68.13
2019-01-11T06:48:54.072Z,49.97
2019-01-11T06:51:24.601Z,47.17
2019-01-11T06:53:55.195Z,44.13
2019-01-11T06:56:25.710Z,49.43
2019-01-11T06:58:56.231Z,47.53
2019-01-11T07:01:26.717Z,42.13
2019-01-11T07:03:57.243Z,60.43
2019-01-11T07:06:27.741Z,35.60
2019-01-11T07:08:58.554Z,30.90
2019-01-11T07:11:29.047Z,40.50
2019-01-11T07:13:59.570Z,38.23
2019-01-11T07:16:30.095Z,36.20
2019-01-11T07:19:00.585Z,39.50
2019-01-11T07:21:31.136Z,36.10
2019-01-11T07:24:01.635Z,35.90
2019-01-11T07:26:32.621Z,37.70
2019-01-11T07:29:03.127Z,47.13
2019-01-11T07:31:33.663Z,36.07
2019-01-11T07:34:04.210Z,40.67
2019-01-11T07:36:35.396Z,53.27
2019-01-11T07:39:09.919Z,98.73
2019-01-11T07:41:40.453Z,47.63
2019-01-11T07:44:10.952Z,46.53
2019-01-11T07:46:43.211Z,50.40
2019-01-11T07:49:13.698Z,52.00
2019-01-11T07:51:44.421Z,46.17
2019-01-11T07:54:14.912Z,39.07
2019-01-11T07:56:45.519Z,41.13
2019-01-11T07:59:16.367Z,39.10
2019-01-11T08:01:46.893Z,41.00
2019-01-11T08:04:17.446Z,37.87
2019-01-11T08:06:48.179Z,41.03
2019-01-11T08:09:18.659Z,40.13
2019-01-11T08:11:49.245Z,43.60
2019-01-11T08:14:19.730Z,40.73
2019-01-11T08:16:50.950Z,44.50
2019-01-11T08:19:21.430Z,44.23
2019-01-11T08:21:51.964Z,62.33
2019-01-11T08:24:22.454Z,37.30
2019-01-11T08:26:53.474Z,30.23
2019-01-11T08:29:23.953Z,38.00
2019-01-11T08:31:54.543Z,23.30
2019-01-11T08:34:25.050Z,24.53
2019-01-11T08:36:55.536Z,28.70
2019-01-11T08:39:32.236Z,20.50
2019-01-11T08:41:58.253Z,19.07
2019-01-11T08:44:28.781Z,16.20
2019-01-11T08:46:59.275Z,21.67
2019-01-11T08:49:29.789Z,17.17
2019-01-11T08:52:00.293Z,17.97
2019-01-11T08:54:31.874Z,14.97
2019-01-11T08:57:02.433Z,17.80
2019-01-11T08:59:33.205Z,16.53
2019-01-11T09:02:03.697Z,20.33
2019-01-11T09:04:34.220Z,20.13
2019-01-11T09:07:04.790Z,15.17
2019-01-11T09:09:35.322Z,16.40
2019-01-11T09:12:05.974Z,16.60
2019-01-11T09:14:46.962Z,16.83
2019-01-11T09:17:18.121Z,19.80
2019-01-11T09:19:48.650Z,13.90
2019-01-11T09:22:19.227Z,25.73
2019-01-11T09:24:49.775Z,14.70
2019-01-11T09:27:20.288Z,14.37
2019-01-11T09:29:50.795Z,14.20
2019-01-11T09:32:23.643Z,13.40
2019-01-11T09:34:54.219Z,14.00
2019-01-11T09:37:24.705Z,16.13
2019-01-11T09:39:55.305Z,21.87
2019-01-11T09:42:25.786Z,13.97
2019-01-11T09:44:56.290Z,16.63
2019-01-11T09:47:26.769Z,16.70
2019-01-11T09:49:57.345Z,13.03
2019-01-11T09:52:27.822Z,14.70
2019-01-11T09:54:58.353Z,18.00
2019-01-11T09:57:28.829Z,16.00
2019-01-11T09:59:59.331Z,15.97
2019-01-11T10:02:36.566Z,10.80
2019-01-11T10:05:09.642Z,12.70
2019-01-11T10:07:40.147Z,10.87
2019-01-11T10:10:13.172Z,11.97
2019-01-11T10:12:47.037Z,13.30
2019-01-11T10:15:18.240Z,11.70
2019-01-11T10:17:50.401Z,11.47
2019-01-11T10:20:21.111Z,10.90
2019-01-11T10:22:51.593Z,12.70
2019-01-11T10:25:22.515Z,14.23
2019-01-11T10:27:52.982Z,11.97
2019-01-11T10:30:23.921Z,9.60
2019-01-11T10:32:54.516Z,12.10
2019-01-11T10:35:25.165Z,13.67
2019-01-11T10:37:55.720Z,10.40
2019-01-11T10:40:26.222Z,10.00
2019-01-11T10:42:56.853Z,12.77
2019-01-11T10:45:27.332Z,10.63
2019-01-11T10:47:59.128Z,16.03
2019-01-11T10:50:29.598Z,13.13
2019-01-11T10:53:00.102Z,9.83
2019-01-11T10:55:31.137Z,8.13
2019-01-11T10:58:03.178Z,8.43
2019-01-11T11:00:41.248Z,12.23
2019-01-11T11:03:12.225Z,8.27
2019-01-11T11:05:42.682Z,9.57
2019-01-11T11:08:14.828Z,10.03
2019-01-11T11:10:45.304Z,6.40
2019-01-11T11:13:15.808Z,8.43
2019-01-11T11:15:47.982Z,9.27
2019-01-11T11:18:18.442Z,7.90
2019-01-11T11:20:48.950Z,11.70
2019-01-11T11:23:19.454Z,8.40
2019-01-11T11:25:50.006Z,8.53
2019-01-11T11:28:20.514Z,8.83
2019-01-11T11:30:51.127Z,10.43
2019-01-11T11:33:21.667Z,12.40
2019-01-11T11:35:52.135Z,10.33
2019-01-11T11:38:22.642Z,9.00
2019-01-11T11:40:53.182Z,8.60
2019-01-11T11:43:23.668Z,6.53
2019-01-11T11:45:54.166Z,13.13
2019-01-11T11:48:24.662Z,14.60
2019-01-11T11:50:55.240Z,9.63
2019-01-11T11:53:25.737Z,9.00
2019-01-11T11:55:56.300Z,8.23
2019-01-11T11:58:26.763Z,6.87
2019-01-11T12:00:57.256Z,7.10
2019-01-11T12:03:27.726Z,9.40
2019-01-11T12:05:58.215Z,5.73
2019-01-11T12:08:28.818Z,6.80
2019-01-11T12:10:59.322Z,7.43
2019-01-11T12:13:29.822Z,4.30
2019-01-11T12:16:00.311Z,8.70
2019-01-11T12:18:30.813Z,6.73
2019-01-11T12:21:01.283Z,19.40
2019-01-11T12:23:31.791Z,10.73
2019-01-11T12:26:02.530Z,6.70
2019-01-11T12:28:33.035Z,6.50
2019-01-11T12:31:03.574Z,8.67
2019-01-11T12:33:34.076Z,12.23
2019-01-11T12:36:04.644Z,10.50
2019-01-11T12:38:35.241Z,18.63
2019-01-11T12:41:05.687Z,12.57
2019-01-11T12:43:36.259Z,10.60
2019-01-11T12:46:06.761Z,10.57
2019-01-11T12:48:37.295Z,12.77
2019-01-11T12:51:07.822Z,14.17
2019-01-11T12:53:38.330Z,9.63
2019-01-11T12:56:08.888Z,30.17
2019-01-11T12:58:39.385Z,15.80
2019-01-11T13:01:10.117Z,10.70
2019-01-11T13:03:40.634Z,37.33
2019-01-11T13:06:11.128Z,27.00
2019-01-11T13:08:41.595Z,13.13
2019-01-11T13:11:12.111Z,12.90
2019-01-11T13:13:42.608Z,13.60
2019-01-11T13:16:13.075Z,15.00
2019-01-11T13:18:43.574Z,14.13
2019-01-11T13:52:07.526Z,16.70
2019-01-11T13:54:38.133Z,27.73
2019-01-11T13:57:10.394Z,19.57
2019-01-11T13:59:41.620Z,17.33
2019-01-11T14:02:12.470Z,16.63
2019-01-11T14:04:43.004Z,14.67
2019-01-11T14:07:13.494Z,12.83
2019-01-11T14:09:43.976Z,13.77
2019-01-11T14:12:14.434Z,14.03
2019-01-11T14:14:46.571Z,14.70
2019-01-11T14:17:17.154Z,14.57
2019-01-11T14:19:47.657Z,15.30
2019-01-11T14:22:19.008Z,10.23
2019-01-11T14:24:49.506Z,14.67
2019-01-11T14:27:19.975Z,13.30
2019-01-11T14:29:53.164Z,10.53
2019-01-11T14:32:23.658Z,15.07
2019-01-11T14:34:54.144Z,12.30
2019-01-11T14:37:24.678Z,12.47
2019-01-11T14:39:55.167Z,12.30
2019-01-11T14:42:25.635Z,12.93
2019-01-11T14:44:56.131Z,10.13
2019-01-11T14:47:26.658Z,13.70
2019-01-11T14:49:57.176Z,12.53
2019-01-11T14:52:27.633Z,14.37
2019-01-11T14:54:59.911Z,15.03
2019-01-11T14:57:32.146Z,10.67
2019-01-11T15:00:02.918Z,12.17
2019-01-11T15:02:33.384Z,11.53
2019-01-11T15:05:05.657Z,23.83
2019-01-11T15:07:36.117Z,13.20
2019-01-11T15:10:11.116Z,12.93
2019-01-11T15:12:42.985Z,13.60
2019-01-11T15:15:13.639Z,14.80
2019-01-11T15:17:44.148Z,13.50
2019-01-11T15:20:18.095Z,13.20
2019-01-11T15:22:49.069Z,13.30
2019-01-11T15:25:22.089Z,14.67
2019-01-11T15:27:52.657Z,17.73
2019-01-11T15:30:23.304Z,17.27
2019-01-11T15:32:53.804Z,12.47
2019-01-11T15:35:24.343Z,14.70
2019-01-11T15:37:54.846Z,16.17
2019-01-11T15:40:27.263Z,12.80
2019-01-11T15:42:57.799Z,14.23
2019-01-11T15:45:28.376Z,14.40
2019-01-11T15:48:00.108Z,14.73
2019-01-11T15:50:52.410Z,14.30
2019-01-11T15:53:22.907Z,38.30
2019-01-11T15:55:53.655Z,12.70
2019-01-11T15:58:24.126Z,14.63
2019-01-11T16:00:54.635Z,12.80
2019-01-11T16:03:25.161Z,8.93
2019-01-11T16:06:28.061Z,11.43
2019-01-11T16:09:15.271Z,11.23
2019-01-11T16:12:08.595Z,10.93
2019-01-11T16:14:54.013Z,15.60
2019-01-11T16:17:30.064Z,14.83
2019-01-11T16:20:00.598Z,14.40
2019-01-11T16:22:31.101Z,9.17
2019-01-11T16:25:01.640Z,11.77
2019-01-11T16:27:32.239Z,9.83
2019-01-11T16:30:02.842Z,16.30
2019-01-11T16:32:33.328Z,13.43
2019-01-11T16:35:04.801Z,12.57
2019-01-11T16:37:35.319Z,12.97
2019-01-11T16:40:12.384Z,15.70
2019-01-11T16:42:44.259Z,12.13
2019-01-11T16:45:15.911Z,15.27
2019-01-11T16:47:46.380Z,13.67
2019-01-11T16:50:19.299Z,13.20
2019-01-11T16:52:49.806Z,15.60
2019-01-11T16:55:20.302Z,11.83
2019-01-11T16:57:50.782Z,13.40
2019-01-11T17:00:23.137Z,16.37
2019-01-11T17:02:53.644Z,12.90
2019-01-11T17:05:25.678Z,15.97
2019-01-11T17:07:56.183Z,19.30
2019-01-11T17:10:26.695Z,15.27
2019-01-11T17:12:57.187Z,14.57
2019-01-11T17:15:28.183Z,10.97
2019-01-11T17:17:58.679Z,13.80
2019-01-11T17:20:30.691Z,13.53
2019-01-11T17:23:01.151Z,35.80
2019-01-11T17:25:31.692Z,20.93
2019-01-11T17:28:03.726Z,15.67
2019-01-11T17:30:35.200Z,10.80
2019-01-11T17:33:05.696Z,15.33
2019-01-11T17:35:36.194Z,13.57
2019-01-11T17:38:08.640Z,12.57
2019-01-11T17:40:39.097Z,10.80
2019-01-11T17:43:09.601Z,11.83
2019-01-11T17:45:40.069Z,9.30
2019-01-11T17:48:10.638Z,13.20
2019-01-11T17:50:42.713Z,15.97
2019-01-11T17:53:13.770Z,18.80
2019-01-11T17:55:44.307Z,26.13
2019-01-11T17:58:16.054Z,32.00
2019-01-11T18:00:48.478Z,35.70
2019-01-11T18:03:19.565Z,33.73
2019-01-11T18:05:50.078Z,30.13
2019-01-11T18:08:22.169Z,39.90
2019-01-11T18:10:55.648Z,41.23
2019-01-11T18:13:24.874Z,35.20
2019-01-11T18:15:55.385Z,34.47
2019-01-11T18:18:25.890Z,32.93
2019-01-11T18:20:56.368Z,27.77
2019-01-11T18:23:27.656Z,32.60
2019-01-11T18:25:58.118Z,31.27
2019-01-11T18:28:28.635Z,38.17
2019-01-11T18:30:59.164Z,28.43
2019-01-11T18:33:29.636Z,30.17
2019-01-11T18:36:00.169Z,27.20
2019-01-11T18:38:30.677Z,30.03
2019-01-11T18:41:01.207Z,25.93
2019-01-11T18:43:33.359Z,32.57
2019-01-11T18:46:03.930Z,23.87
2019-01-11T18:48:34.413Z,24.13
2019-01-11T18:51:06.621Z,27.13
2019-01-11T18:53:37.099Z,44.10
2019-01-11T18:56:07.617Z,105.10
2019-01-11T18:58:38.119Z,42.27
2019-01-11T19:01:08.644Z,26.63
2019-01-11T19:03:39.154Z,33.40
2019-01-11T19:06:12.495Z,31.20
2019-01-11T19:08:43.016Z,33.57
2019-01-11T19:11:15.220Z,31.67
2019-01-11T19:13:45.694Z,24.03
2019-01-11T19:16:16.309Z,25.40
2019-01-11T19:18:47.302Z,28.33
2019-01-11T19:21:19.405Z,31.23
2019-01-11T19:23:49.928Z,38.17
2019-01-11T19:26:20.399Z,36.33
2019-01-11T19:28:50.928Z,39.97
2019-01-11T19:31:21.390Z,36.00
2019-01-11T19:33:51.965Z,29.50
2019-01-11T19:36:22.478Z,30.40
2019-01-11T19:38:52.947Z,32.53
2019-01-11T19:41:23.418Z,32.00
2019-01-11T19:43:53.920Z,32.07
2019-01-11T19:46:24.394Z,36.80
2019-01-11T19:48:56.604Z,28.20
2019-01-11T19:51:27.070Z,31.60
2019-01-11T19:53:57.585Z,33.07
2019-01-11T19:56:29.524Z,37.53
2019-01-11T19:59:00.067Z,32.67
2019-01-11T20:01:30.608Z,34.70
2019-01-11T20:04:01.205Z,45.10
2019-01-11T20:06:31.866Z,39.67
2019-01-11T20:09:02.847Z,44.23
2019-01-11T20:11:33.540Z,41.00
2019-01-11T20:14:04.261Z,34.83
2019-01-11T20:16:34.836Z,33.20
2019-01-11T20:19:05.906Z,33.10
2019-01-11T20:21:36.389Z,41.40
2019-01-11T20:24:06.976Z,44.87
2019-01-11T20:26:37.519Z,33.67
2019-01-11T20:29:08.110Z,35.00
2019-01-11T20:31:38.589Z,42.43
2019-01-11T20:34:09.180Z,30.03
2019-01-11T20:36:47.054Z,26.87
2019-01-11T20:39:17.572Z,37.10
2019-01-11T20:41:48.090Z,24.20
2019-01-11T20:44:18.647Z,22.97
2019-01-11T20:46:49.234Z,26.93
2019-01-11T20:49:19.742Z,30.40
2019-01-11T20:51:50.327Z,23.23
2019-01-11T20:54:20.946Z,24.67
2019-01-11T20:56:52.759Z,25.83
2019-01-11T20:59:23.309Z,29.10
2019-01-11T21:01:53.818Z,19.33
2019-01-11T21:04:24.295Z,21.70
2019-01-11T21:06:54.810Z,25.07
2019-01-11T21:09:25.326Z,26.50
2019-01-11T21:11:55.830Z,25.57
2019-01-11T21:14:26.345Z,22.27
2019-01-11T21:16:56.894Z,25.53
2019-01-11T21:19:29.350Z,28.00
2019-01-11T21:21:59.885Z,23.63
2019-01-11T21:24:30.365Z,26.20
2019-01-11T21:27:02.551Z,24.47
2019-01-11T21:29:33.071Z,25.60
2019-01-11T21:32:03.655Z,29.70
2019-01-11T21:34:34.147Z,22.63
2019-01-11T21:37:04.715Z,24.43
2019-01-11T21:39:35.283Z,22.90
2019-01-11T21:42:05.866Z,19.13
2019-01-11T21:44:38.107Z,23.90
2019-01-11T21:47:08.631Z,22.10
2019-01-11T21:49:39.102Z,28.43
2019-01-11T21:52:09.621Z,126.03
2019-01-11T21:54:40.131Z,36.13
2019-01-11T21:57:11.481Z,26.40
2019-01-11T21:59:41.956Z,26.00
2019-01-11T22:02:12.484Z,25.13
2019-01-11T22:04:42.992Z,19.57
2019-01-11T22:07:13.466Z,21.30
2019-01-11T22:09:43.977Z,20.50
2019-01-11T22:12:14.543Z,25.17
2019-01-11T22:14:45.057Z,26.70
2019-01-11T22:17:15.555Z,24.37
2019-01-11T22:19:46.064Z,28.33
2019-01-11T22:22:16.550Z,24.00
2019-01-11T22:24:47.040Z,28.90
2019-01-11T22:27:17.548Z,20.03
2019-01-11T22:29:48.402Z,25.80
2019-01-11T22:32:18.901Z,26.83
2019-01-11T22:34:49.380Z,27.67
2019-01-11T22:37:19.900Z,27.90
2019-01-11T22:39:50.411Z,23.37
2019-01-11T22:42:20.930Z,23.70
2019-01-11T22:44:51.439Z,23.37
2019-01-11T22:47:23.584Z,23.53
2019-01-11T22:49:54.109Z,22.93
2019-01-11T22:52:24.575Z,29.43
2019-01-11T22:54:55.088Z,26.27
2019-01-11T22:57:25.577Z,23.90
2019-01-11T22:59:56.071Z,25.37
2019-01-11T23:02:30.789Z,26.33
2019-01-11T23:05:02.196Z,23.07
2019-01-11T23:07:34.252Z,24.60
2019-01-11T23:10:12.318Z,24.10
2019-01-11T23:12:46.074Z,22.67
2019-01-11T23:15:19.264Z,22.63
2019-01-11T23:17:53.085Z,29.83
2019-01-11T23:20:23.645Z,27.37
2019-01-11T23:22:54.170Z,31.03
2019-01-11T23:25:24.662Z,40.60
2019-01-11T23:27:55.244Z,43.97
2019-01-11T23:30:25.784Z,40.37
2019-01-11T23:32:56.302Z,42.67
2019-01-11T23:35:26.969Z,45.97
2019-01-11T23:37:57.502Z,51.20
2019-01-11T23:40:28.284Z,41.83
2019-01-11T23:42:58.766Z,46.23
2019-01-11T23:45:30.328Z,44.30
2019-01-11T23:48:01.700Z,41.50
2019-01-11T23:50:32.304Z,46.87
2019-01-11T23:53:02.762Z,39.90
2019-01-11T23:55:34.989Z,38.70
2019-01-11T23:58:05.494Z,42.67
